createdAt,value
2023-02-11T00:00:45.152Z,41.8
2023-02-11T00:01:46.614Z,41.9
2023-02-11T00:02:48.471Z,41.9
2023-02-11T00:03:50.069Z,42.1
2023-02-11T00:04:51.591Z,42
2023-02-11T00:05:53.103Z,42.4
2023-02-11T00:06:54.496Z,42.6
2023-02-11T00:07:55.880Z,42
2023-02-11T00:08:57.285Z,42.1
2023-02-11T00:09:58.701Z,41.9
2023-02-11T00:11:00.116Z,42.2
2023-02-11T00:12:01.542Z,42
2023-02-11T00:13:02.902Z,41.9
2023-02-11T00:14:04.310Z,42
2023-02-11T00:15:05.740Z,42.5
2023-02-11T00:16:07.169Z,41.8
2023-02-11T00:17:08.668Z,41.9
2023-02-11T00:18:10.272Z,42
2023-02-11T00:19:11.674Z,42.1
2023-02-11T00:20:13.088Z,42.4
2023-02-11T00:21:14.491Z,42
2023-02-11T00:22:15.895Z,42.1
2023-02-11T00:23:17.314Z,42.1
2023-02-11T00:24:18.714Z,42.4
2023-02-11T00:25:20.117Z,41.9
2023-02-11T00:26:21.706Z,42.4
2023-02-11T00:27:23.116Z,42
2023-02-11T00:28:24.764Z,42.1
2023-02-11T00:29:26.212Z,42
2023-02-11T00:30:27.717Z,42.1
2023-02-11T00:31:29.604Z,41.8
2023-02-11T00:32:31.247Z,41.9
2023-02-11T00:33:32.778Z,42
2023-02-11T00:34:34.231Z,41.9
2023-02-11T00:35:35.616Z,41.9
2023-02-11T00:36:37.075Z,42
2023-02-11T00:37:38.491Z,42
2023-02-11T00:38:39.906Z,42.1
2023-02-11T00:39:41.359Z,42
2023-02-11T00:40:42.754Z,42
2023-02-11T00:41:44.226Z,41.8
2023-02-11T00:42:45.638Z,42
2023-02-11T00:43:47.039Z,41.9
2023-02-11T00:44:48.449Z,41.9
2023-02-11T00:45:50.786Z,41.8
2023-02-11T00:46:52.349Z,42.6
2023-02-11T00:47:54.006Z,42.2
2023-02-11T00:48:55.414Z,41.7
2023-02-11T00:49:56.797Z,41.8
2023-02-11T00:50:58.200Z,42
2023-02-11T00:51:59.608Z,41.9
2023-02-11T00:53:01.033Z,42
2023-02-11T00:54:02.433Z,42.1
2023-02-11T00:55:03.880Z,41.6
2023-02-11T00:56:05.414Z,41.8
2023-02-11T00:57:06.854Z,41.8
2023-02-11T00:58:08.253Z,41.7
2023-02-11T00:59:09.666Z,42
2023-02-11T01:00:11.179Z,41.5
2023-02-11T01:01:12.778Z,41.7
2023-02-11T01:02:14.278Z,41.6
2023-02-11T01:03:15.735Z,41.6
2023-02-11T01:04:17.149Z,41.6
2023-02-11T01:05:18.614Z,41.5
2023-02-11T01:06:20.141Z,41.5
2023-02-11T01:07:21.550Z,41.3
2023-02-11T01:08:22.961Z,41.5
2023-02-11T01:09:24.380Z,41.3
2023-02-11T01:10:25.789Z,41.3
2023-02-11T01:11:27.363Z,41.4
2023-02-11T01:12:28.789Z,41.3
2023-02-11T01:13:30.178Z,41.6
2023-02-11T01:14:31.597Z,41.5
2023-02-11T01:15:33.151Z,41.4
2023-02-11T01:16:34.574Z,41.2
2023-02-11T01:17:35.963Z,41.3
2023-02-11T01:18:37.426Z,41.5
2023-02-11T01:19:38.808Z,41.3
2023-02-11T01:20:40.205Z,41.2
2023-02-11T01:21:41.615Z,41.3
2023-02-11T01:22:43.018Z,41.2
2023-02-11T01:23:44.432Z,41.4
2023-02-11T01:24:45.847Z,41.5
2023-02-11T01:25:47.282Z,41.1
2023-02-11T01:26:48.675Z,41
2023-02-11T01:27:50.103Z,41
2023-02-11T01:28:51.515Z,41
2023-02-11T01:29:52.927Z,40.9
2023-02-11T01:30:54.636Z,41
2023-02-11T01:31:56.423Z,41
2023-02-11T01:32:57.926Z,40.9
2023-02-11T01:33:59.390Z,40.6
2023-02-11T01:35:00.993Z,41.3
2023-02-11T01:36:02.412Z,40.9
2023-02-11T01:37:03.855Z,40.8
2023-02-11T01:38:05.265Z,40.9
2023-02-11T01:39:06.673Z,40.8
2023-02-11T01:40:08.082Z,40.7
2023-02-11T01:41:09.500Z,40.8
2023-02-11T01:42:10.928Z,40.9
2023-02-11T01:43:12.327Z,40.7
2023-02-11T01:44:13.723Z,40.8
2023-02-11T01:45:15.117Z,40.9
2023-02-11T01:46:16.552Z,40.8
2023-02-11T01:47:17.955Z,40.7
2023-02-11T01:48:19.380Z,40.9
2023-02-11T01:49:20.919Z,41
2023-02-11T01:50:22.351Z,40.8
2023-02-11T01:51:23.755Z,40.4
2023-02-11T01:52:25.137Z,40.5
2023-02-11T01:53:26.561Z,40.9
2023-02-11T01:54:27.964Z,40.8
2023-02-11T01:55:29.386Z,40.9
2023-02-11T01:56:30.772Z,40.6
2023-02-11T01:57:32.179Z,40.8
2023-02-11T01:58:33.570Z,40.5
2023-02-11T01:59:34.994Z,40.9
2023-02-11T02:00:36.448Z,40.9
2023-02-11T02:01:37.881Z,40.5
2023-02-11T02:02:39.475Z,40.7
2023-02-11T02:03:41.110Z,40.4
2023-02-11T02:04:42.597Z,40.5
2023-02-11T02:05:44.035Z,40.5
2023-02-11T02:06:45.461Z,40.2
2023-02-11T02:07:46.846Z,40.4
2023-02-11T02:08:48.269Z,40.1
2023-02-11T02:09:49.673Z,40.5
2023-02-11T02:10:51.077Z,40.3
2023-02-11T02:11:52.493Z,40.3
2023-02-11T02:12:53.863Z,40.2
2023-02-11T02:13:55.337Z,40.3
2023-02-11T02:14:56.742Z,40.4
2023-02-11T02:15:58.361Z,40.2
2023-02-11T02:16:59.812Z,40.3
2023-02-11T02:18:01.245Z,40.3
2023-02-11T02:19:02.649Z,40.1
2023-02-11T02:20:04.223Z,40
2023-02-11T02:21:05.627Z,40.3
2023-02-11T02:22:07.086Z,40.2
2023-02-11T02:23:08.449Z,40
2023-02-11T02:24:13.846Z,40.2
2023-02-11T02:25:15.580Z,40.3
2023-02-11T02:26:16.962Z,40.1
2023-02-11T02:27:18.363Z,40
2023-02-11T02:28:19.883Z,39.9
2023-02-11T02:29:21.385Z,39.9
2023-02-11T02:30:22.841Z,40
2023-02-11T02:31:24.436Z,40
2023-02-11T02:32:25.827Z,40.1
2023-02-11T02:33:27.236Z,39.9
2023-02-11T02:34:28.620Z,40.1
2023-02-11T02:35:30.074Z,39.8
2023-02-11T02:36:31.470Z,39.6
2023-02-11T02:37:32.878Z,39.7
2023-02-11T02:38:34.364Z,39.7
2023-02-11T02:39:35.794Z,39.9
2023-02-11T02:40:37.183Z,39.5
2023-02-11T02:41:38.582Z,39.7
2023-02-11T02:42:39.962Z,39.5
2023-02-11T02:43:41.376Z,39.4
2023-02-11T02:44:42.783Z,39.6
2023-02-11T02:45:44.194Z,39.4
2023-02-11T02:46:45.678Z,39.5
2023-02-11T02:47:47.078Z,39.5
2023-02-11T02:48:48.480Z,39.3
2023-02-11T02:49:49.865Z,39.6
2023-02-11T02:50:51.312Z,39.4
2023-02-11T02:51:52.748Z,39.4
2023-02-11T02:52:54.124Z,39.5
2023-02-11T02:53:55.519Z,39.4
2023-02-11T02:54:56.913Z,39.3
2023-02-11T02:55:58.298Z,39.4
2023-02-11T02:56:59.691Z,39.5
2023-02-11T02:58:01.105Z,39.4
2023-02-11T02:59:02.583Z,39.5
2023-02-11T03:00:04.166Z,39.2
2023-02-11T03:01:05.754Z,39.3
2023-02-11T03:02:07.221Z,39.7
2023-02-11T03:03:08.606Z,39.6
2023-02-11T03:04:10.107Z,39.4
2023-02-11T03:05:11.533Z,39.2
2023-02-11T03:06:12.991Z,39.3
2023-02-11T03:07:14.384Z,39.1
2023-02-11T03:08:15.775Z,39.3
2023-02-11T03:09:17.290Z,39.3
2023-02-11T03:10:18.801Z,39.1
2023-02-11T03:11:20.239Z,39.1
2023-02-11T03:12:21.672Z,39.4
2023-02-11T03:13:23.067Z,39.4
2023-02-11T03:14:24.576Z,39
2023-02-11T03:15:25.978Z,39.2
2023-02-11T03:16:27.570Z,39
2023-02-11T03:17:29.152Z,39
2023-02-11T03:18:30.544Z,39.1
2023-02-11T03:19:31.942Z,39.1
2023-02-11T03:20:33.345Z,39
2023-02-11T03:21:34.801Z,39.1
2023-02-11T03:22:36.194Z,39
2023-02-11T03:23:37.584Z,38.9
2023-02-11T03:24:38.992Z,39
2023-02-11T03:25:40.406Z,39.2
2023-02-11T03:26:41.808Z,39.3
2023-02-11T03:27:43.223Z,39.2
2023-02-11T03:28:44.625Z,39.1
2023-02-11T03:29:46.044Z,39.1
2023-02-11T03:30:47.498Z,39.1
2023-02-11T03:31:49.000Z,38.9
2023-02-11T03:32:50.451Z,38.9
2023-02-11T03:33:51.845Z,38.8
2023-02-11T03:34:53.250Z,38.9
2023-02-11T03:35:54.664Z,38.9
2023-02-11T03:36:56.105Z,38.8
2023-02-11T03:37:57.496Z,38.9
2023-02-11T03:38:58.930Z,38.7
2023-02-11T03:40:00.329Z,38.7
2023-02-11T03:41:01.733Z,38.7
2023-02-11T03:42:03.158Z,38.8
2023-02-11T03:43:04.531Z,38.8
2023-02-11T03:44:05.945Z,38.6
2023-02-11T03:45:07.378Z,38.7
2023-02-11T03:46:09.056Z,38.4
2023-02-11T03:47:10.512Z,38.4
2023-02-11T03:48:11.903Z,38.8
2023-02-11T03:49:13.308Z,38.5
2023-02-11T03:50:14.800Z,38.5
2023-02-11T03:51:16.283Z,38.4
2023-02-11T03:52:17.741Z,38.6
2023-02-11T03:53:19.130Z,38.4
2023-02-11T03:54:20.495Z,38.5
2023-02-11T03:55:21.889Z,38.6
2023-02-11T03:56:23.283Z,38.5
2023-02-11T03:57:24.676Z,38.2
2023-02-11T03:58:26.043Z,38.4
2023-02-11T03:59:27.476Z,38.3
2023-02-11T04:00:28.869Z,38.2
2023-02-11T04:01:30.514Z,38.3
2023-02-11T04:02:32.027Z,38.3
2023-02-11T04:03:33.716Z,38.2
2023-02-11T04:04:35.196Z,38
2023-02-11T04:05:36.630Z,38.4
2023-02-11T04:06:38.024Z,38.4
2023-02-11T04:07:39.472Z,38.2
2023-02-11T04:08:40.871Z,38.2
2023-02-11T04:09:42.284Z,38
2023-02-11T04:10:43.679Z,38.3
2023-02-11T04:11:45.078Z,38
2023-02-11T04:12:46.468Z,38
2023-02-11T04:13:47.862Z,38
2023-02-11T04:14:49.271Z,37.9
2023-02-11T04:15:51.572Z,38
2023-02-11T04:16:53.103Z,38
2023-02-11T04:17:54.551Z,38
2023-02-11T04:18:55.942Z,38.1
2023-02-11T04:19:57.345Z,38
2023-02-11T04:20:58.743Z,37.9
2023-02-11T04:22:00.163Z,38.1
2023-02-11T04:23:01.611Z,38.1
2023-02-11T04:24:03.005Z,38
2023-02-11T04:25:04.377Z,38.1
2023-02-11T04:26:05.789Z,38.2
2023-02-11T04:27:07.203Z,37.9
2023-02-11T04:28:08.650Z,38.1
2023-02-11T04:29:10.091Z,37.8
2023-02-11T04:30:11.502Z,38.1
2023-02-11T04:31:13.159Z,37.9
2023-02-11T04:32:14.586Z,37.9
2023-02-11T04:33:15.959Z,38
2023-02-11T04:34:17.390Z,37.8
2023-02-11T04:35:18.786Z,38
2023-02-11T04:36:20.189Z,37.9
2023-02-11T04:37:21.585Z,38
2023-02-11T04:38:23.019Z,37.8
2023-02-11T04:39:24.419Z,37.7
2023-02-11T04:40:25.826Z,37.9
2023-02-11T04:41:27.243Z,37.8
2023-02-11T04:42:28.652Z,37.7
2023-02-11T04:43:30.046Z,37.7
2023-02-11T04:44:31.459Z,37.6
2023-02-11T04:45:32.885Z,37.7
2023-02-11T04:46:34.272Z,37.7
2023-02-11T04:47:35.785Z,37.6
2023-02-11T04:48:37.176Z,37.6
2023-02-11T04:49:38.595Z,37.6
2023-02-11T04:50:40.027Z,37.7
2023-02-11T04:51:41.405Z,37.5
2023-02-11T04:52:42.816Z,37.6
2023-02-11T04:53:44.248Z,37.5
2023-02-11T04:54:45.652Z,37.5
2023-02-11T04:55:47.056Z,37.5
2023-02-11T04:56:48.479Z,37.6
2023-02-11T04:57:49.863Z,37.4
2023-02-11T04:58:51.308Z,37.3
2023-02-11T04:59:52.701Z,37.5
2023-02-11T05:00:54.171Z,37.3
2023-02-11T05:01:55.680Z,37.4
2023-02-11T05:02:57.062Z,37.4
2023-02-11T05:03:58.648Z,37.4
2023-02-11T05:05:00.150Z,37.3
2023-02-11T05:06:01.697Z,37.3
2023-02-11T05:07:03.078Z,37.2
2023-02-11T05:08:04.522Z,37
2023-02-11T05:09:05.983Z,37.1
2023-02-11T05:10:07.391Z,37.1
2023-02-11T05:11:08.787Z,37.1
2023-02-11T05:12:10.187Z,37
2023-02-11T05:13:11.602Z,37
2023-02-11T05:14:13.015Z,37
2023-02-11T05:15:14.429Z,37.1
2023-02-11T05:16:15.884Z,36.9
2023-02-11T05:17:17.298Z,36.8
2023-02-11T05:18:18.732Z,37
2023-02-11T05:19:20.170Z,37
2023-02-11T05:20:21.559Z,36.9
2023-02-11T05:21:22.945Z,36.8
2023-02-11T05:22:24.327Z,36.7
2023-02-11T05:23:25.749Z,36.8
2023-02-11T05:24:27.183Z,36.7
2023-02-11T05:25:28.580Z,36.9
2023-02-11T05:26:30.172Z,36.7
2023-02-11T05:27:31.559Z,36.7
2023-02-11T05:28:33.081Z,36.6
2023-02-11T05:29:34.595Z,36.7
2023-02-11T05:30:36.144Z,36.6
2023-02-11T05:31:37.565Z,36.8
2023-02-11T05:32:38.955Z,36.7
2023-02-11T05:33:40.361Z,36.7
2023-02-11T05:34:41.785Z,36.6
2023-02-11T05:35:43.179Z,36.6
2023-02-11T05:36:44.645Z,36.6
2023-02-11T05:37:46.028Z,36.5
2023-02-11T05:38:47.431Z,36.7
2023-02-11T05:39:48.929Z,36.5
2023-02-11T05:40:50.347Z,36.4
2023-02-11T05:41:51.722Z,36.5
2023-02-11T05:42:53.117Z,36.6
2023-02-11T05:43:54.500Z,36.4
2023-02-11T05:44:55.894Z,36.5
2023-02-11T05:45:57.461Z,36.4
2023-02-11T05:46:58.883Z,36.4
2023-02-11T05:48:00.286Z,36.3
2023-02-11T05:49:01.682Z,36.1
2023-02-11T05:50:03.076Z,36.2
2023-02-11T05:51:04.499Z,36.1
2023-02-11T05:52:05.906Z,36
2023-02-11T05:53:07.631Z,35.9
2023-02-11T05:54:09.382Z,35.8
2023-02-11T05:55:10.836Z,36
2023-02-11T05:56:12.228Z,35.9
2023-02-11T05:57:13.642Z,35.9
2023-02-11T05:58:15.091Z,35.7
2023-02-11T05:59:16.497Z,35.7
2023-02-11T06:00:17.953Z,35.6
2023-02-11T06:01:19.368Z,35.5
2023-02-11T06:02:20.815Z,35.5
2023-02-11T06:03:22.331Z,35.6
2023-02-11T06:04:23.771Z,35.9
2023-02-11T06:05:25.165Z,35.7
2023-02-11T06:06:26.558Z,35.7
2023-02-11T06:07:27.962Z,35.7
2023-02-11T06:08:29.411Z,35.8
2023-02-11T06:09:30.801Z,35.9
2023-02-11T06:10:32.251Z,35.9
2023-02-11T06:11:33.650Z,36
2023-02-11T06:12:35.052Z,36
2023-02-11T06:13:36.475Z,36
2023-02-11T06:14:37.874Z,35.9
2023-02-11T06:15:39.315Z,35.9
2023-02-11T06:16:40.735Z,35.7
2023-02-11T06:17:42.142Z,35.9
2023-02-11T06:18:43.569Z,35.7
2023-02-11T06:19:44.988Z,35.8
2023-02-11T06:20:46.406Z,35.9
2023-02-11T06:21:47.798Z,35.5
2023-02-11T06:22:49.202Z,35.8
2023-02-11T06:23:50.609Z,35.8
2023-02-11T06:25:02.421Z,35.9
2023-02-11T06:26:04.035Z,35.8
2023-02-11T06:27:05.443Z,35.8
2023-02-11T06:28:06.981Z,35.7
2023-02-11T06:29:08.484Z,35.7
2023-02-11T06:30:09.903Z,35.7
2023-02-11T06:31:11.567Z,35.8
2023-02-11T06:32:44.159Z,35.8
2023-02-11T06:33:46.294Z,35.9
2023-02-11T06:34:47.743Z,35.7
2023-02-11T06:35:50.012Z,35.8
2023-02-11T06:36:51.638Z,35.9
2023-02-11T06:37:53.030Z,35.6
2023-02-11T06:38:54.420Z,35.6
2023-02-11T06:39:55.825Z,35.5
2023-02-11T06:40:57.211Z,35.6
2023-02-11T06:41:58.652Z,35.6
2023-02-11T06:43:00.108Z,35.5
2023-02-11T06:44:01.635Z,35.8
2023-02-11T06:45:03.064Z,35.7
2023-02-11T06:46:04.491Z,35.6
2023-02-11T06:47:05.872Z,35.4
2023-02-11T06:48:07.312Z,35.4
2023-02-11T06:49:08.718Z,35.7
2023-02-11T06:50:10.109Z,35.7
2023-02-11T06:51:11.494Z,35.7
2023-02-11T06:52:12.886Z,35.5
2023-02-11T06:53:14.322Z,35.7
2023-02-11T06:54:15.730Z,35.7
2023-02-11T06:55:17.132Z,35.7
2023-02-11T06:56:18.554Z,35.7
2023-02-11T06:57:20.015Z,35.9
2023-02-11T06:58:21.465Z,35.6
2023-02-11T06:59:23.038Z,35.6
2023-02-11T07:00:24.466Z,35.6
2023-02-11T07:01:26.119Z,35.5
2023-02-11T07:02:27.792Z,35.7
2023-02-11T07:03:29.259Z,35.5
2023-02-11T07:04:30.692Z,35.6
2023-02-11T07:05:32.111Z,35.6
2023-02-11T07:06:33.521Z,35.5
2023-02-11T07:07:34.929Z,35.6
2023-02-11T07:08:36.341Z,35.5
2023-02-11T07:09:37.765Z,35.6
2023-02-11T07:10:39.157Z,35.5
2023-02-11T07:11:40.576Z,35.3
2023-02-11T07:12:42.310Z,35.5
2023-02-11T07:13:43.726Z,35.4
2023-02-11T07:14:45.174Z,35.3
2023-02-11T07:15:46.609Z,35.6
2023-02-11T07:16:48.051Z,35.3
2023-02-11T07:17:49.447Z,35.3
2023-02-11T07:18:51.013Z,35.3
2023-02-11T07:19:52.448Z,35.3
2023-02-11T07:20:53.877Z,35.4
2023-02-11T07:21:55.333Z,35.2
2023-02-11T07:22:56.756Z,35.5
2023-02-11T07:23:58.211Z,35.5
2023-02-11T07:24:59.645Z,35.4
2023-02-11T07:26:01.028Z,35.3
2023-02-11T07:27:02.432Z,35
2023-02-11T07:28:04.045Z,35.2
2023-02-11T07:29:05.546Z,35.5
2023-02-11T07:30:07.684Z,35.5
2023-02-11T07:31:09.323Z,34.4
2023-02-11T07:32:11.016Z,33.4
2023-02-11T07:33:12.516Z,33.1
2023-02-11T07:34:13.920Z,32.7
2023-02-11T07:35:15.317Z,33
2023-02-11T07:36:16.764Z,32.3
2023-02-11T07:37:18.181Z,32.3
2023-02-11T07:38:19.651Z,32.4
2023-02-11T07:39:21.049Z,32.3
2023-02-11T07:40:22.443Z,32.1
2023-02-11T07:41:23.846Z,31.3
2023-02-11T07:42:25.261Z,31.2
2023-02-11T07:43:26.769Z,31.7
2023-02-11T07:44:28.178Z,31.7
2023-02-11T07:45:29.592Z,32
2023-02-11T07:46:31.158Z,31.1
2023-02-11T07:47:32.900Z,30.7
2023-02-11T07:48:34.305Z,30.6
2023-02-11T07:49:35.867Z,30.3
2023-02-11T07:50:37.274Z,30.5
2023-02-11T07:51:38.675Z,31
2023-02-11T07:52:40.074Z,31.2
2023-02-11T07:53:41.493Z,30.5
2023-02-11T07:54:42.847Z,30.8
2023-02-11T07:55:44.253Z,30.4
2023-02-11T07:56:45.652Z,30.3
2023-02-11T07:57:47.085Z,30.6
2023-02-11T07:58:48.677Z,31
2023-02-11T07:59:50.099Z,32
2023-02-11T08:00:51.608Z,31.1
2023-02-11T08:01:53.198Z,32.1
2023-02-11T08:02:54.668Z,33.2
2023-02-11T08:03:56.072Z,33.1
2023-02-11T08:04:57.473Z,32.6
2023-02-11T08:05:58.861Z,32.9
2023-02-11T08:07:00.277Z,32.6
2023-02-11T08:08:01.774Z,31.4
2023-02-11T08:09:03.192Z,31.9
2023-02-11T08:10:04.669Z,32.6
2023-02-11T08:11:06.052Z,32.4
2023-02-11T08:12:07.462Z,32
2023-02-11T08:13:08.887Z,31.7
2023-02-11T08:14:10.336Z,31.4
2023-02-11T08:15:11.734Z,31.7
2023-02-11T08:16:13.174Z,31.6
2023-02-11T08:17:14.563Z,31.2
2023-02-11T08:18:15.966Z,30.9
2023-02-11T08:19:17.375Z,30.9
2023-02-11T08:20:18.843Z,31.1
2023-02-11T08:21:20.267Z,30.8
2023-02-11T08:22:21.684Z,30.9
2023-02-11T08:24:29.715Z,30.6
2023-02-11T08:25:31.130Z,30.9
2023-02-11T08:26:32.541Z,30.8
2023-02-11T08:27:33.948Z,30.2
2023-02-11T08:28:35.430Z,30.1
2023-02-11T08:29:36.882Z,30.2
2023-02-11T08:30:38.334Z,29.9
2023-02-11T08:31:40.141Z,29.6
2023-02-11T08:32:41.694Z,29.9
2023-02-11T08:33:43.124Z,30.3
2023-02-11T08:34:44.526Z,30.2
2023-02-11T08:35:45.970Z,29.6
2023-02-11T08:36:47.590Z,29.7
2023-02-11T08:37:48.977Z,30.1
2023-02-11T08:38:50.360Z,30.1
2023-02-11T08:39:51.775Z,29.2
2023-02-11T08:40:53.429Z,29.7
2023-02-11T08:41:54.857Z,29.8
2023-02-11T08:42:56.256Z,29.4
2023-02-11T08:43:57.686Z,29.5
2023-02-11T08:44:59.136Z,29.1
2023-02-11T08:46:02.708Z,28.3
2023-02-11T08:47:04.212Z,29.1
2023-02-11T08:48:05.626Z,28.9
2023-02-11T08:49:07.066Z,28.9
2023-02-11T08:50:08.507Z,29.3
2023-02-11T08:51:09.944Z,29
2023-02-11T08:52:11.382Z,28.6
2023-02-11T08:53:12.767Z,28.5
2023-02-11T08:54:14.205Z,28.7
2023-02-11T08:55:15.654Z,28.7
2023-02-11T08:56:17.083Z,28.7
2023-02-11T08:57:18.502Z,29.1
2023-02-11T08:58:19.929Z,28.3
2023-02-11T08:59:21.349Z,28.7
2023-02-11T09:00:22.809Z,28.7
2023-02-11T09:01:24.303Z,28.3
2023-02-11T09:02:25.897Z,28.3
2023-02-11T09:03:27.355Z,28.6
2023-02-11T09:04:28.836Z,28.6
2023-02-11T09:05:30.241Z,28.2
2023-02-11T09:06:31.674Z,28.3
2023-02-11T09:07:33.081Z,28
2023-02-11T09:08:34.471Z,28.4
2023-02-11T09:09:35.880Z,28
2023-02-11T09:10:37.299Z,28.1
2023-02-11T09:11:38.728Z,27.9
2023-02-11T09:12:40.170Z,28.2
2023-02-11T09:13:42.601Z,27.9
2023-02-11T09:14:44.028Z,28
2023-02-11T09:15:45.518Z,27.8
2023-02-11T09:16:47.192Z,27.9
2023-02-11T09:17:48.610Z,27.8
2023-02-11T09:18:50.020Z,28.2
2023-02-11T09:19:51.418Z,27.7
2023-02-11T09:20:53.432Z,27.7
2023-02-11T09:21:54.952Z,27.7
2023-02-11T09:22:56.371Z,27.6
2023-02-11T09:23:57.871Z,27.6
2023-02-11T09:24:59.478Z,27.4
2023-02-11T09:26:00.887Z,27.6
2023-02-11T09:27:02.288Z,27.5
2023-02-11T09:28:03.779Z,27.4
2023-02-11T09:29:05.256Z,27.5
2023-02-11T09:30:06.668Z,27.2
2023-02-11T09:31:08.504Z,27.4
2023-02-11T09:32:10.756Z,27.4
2023-02-11T09:33:12.337Z,27.3
2023-02-11T09:34:13.744Z,27.1
2023-02-11T09:35:15.164Z,27.4
2023-02-11T09:36:16.584Z,27.3
2023-02-11T09:37:17.999Z,27.1
2023-02-11T09:38:19.403Z,27
2023-02-11T09:39:20.838Z,27.2
2023-02-11T09:40:22.303Z,27.2
2023-02-11T09:41:23.756Z,26.7
2023-02-11T09:42:25.216Z,26.7
2023-02-11T09:43:26.631Z,27
2023-02-11T09:44:28.044Z,27
2023-02-11T09:45:29.435Z,27
2023-02-11T09:46:31.136Z,27
2023-02-11T09:47:32.598Z,26.8
2023-02-11T09:48:34.011Z,27.1
2023-02-11T09:49:35.404Z,26.8
2023-02-11T09:50:36.838Z,26.6
2023-02-11T09:51:38.263Z,26.7
2023-02-11T09:52:39.670Z,26.4
2023-02-11T09:53:41.073Z,26.7
2023-02-11T09:54:42.507Z,26.3
2023-02-11T09:55:43.912Z,26.5
2023-02-11T09:56:45.304Z,26.6
2023-02-11T09:57:46.721Z,26.3
2023-02-11T09:58:48.149Z,26.5
2023-02-11T09:59:49.679Z,26.5
2023-02-11T10:00:51.806Z,26.3
2023-02-11T10:01:53.723Z,26.3
2023-02-11T10:02:55.254Z,26.4
2023-02-11T10:03:56.767Z,26.5
2023-02-11T10:04:58.249Z,26
2023-02-11T10:05:59.765Z,25.8
2023-02-11T10:07:01.217Z,26.2
2023-02-11T10:08:02.610Z,26.1
2023-02-11T10:09:04.040Z,26.3
2023-02-11T10:10:05.524Z,26.1
2023-02-11T10:11:06.932Z,26.3
2023-02-11T10:12:08.517Z,26.1
2023-02-11T10:13:09.932Z,25.6
2023-02-11T10:14:11.343Z,26.1
2023-02-11T10:15:12.759Z,25.8
2023-02-11T10:16:14.436Z,26.1
2023-02-11T10:17:15.951Z,26.3
2023-02-11T10:18:17.374Z,26
2023-02-11T10:19:18.808Z,26.1
2023-02-11T10:20:20.233Z,26.1
2023-02-11T10:21:21.632Z,25.6
2023-02-11T10:22:23.027Z,25.7
2023-02-11T10:23:24.422Z,25.4
2023-02-11T10:24:25.836Z,25.8
2023-02-11T10:25:27.262Z,26
2023-02-11T10:26:28.665Z,25.5
2023-02-11T10:27:30.128Z,25.5
2023-02-11T10:28:31.783Z,25.8
2023-02-11T10:29:33.329Z,25.8
2023-02-11T10:30:34.919Z,25.3
2023-02-11T10:31:36.804Z,25.6
2023-02-11T10:32:38.391Z,25.3
2023-02-11T10:33:39.831Z,25.2
2023-02-11T10:34:41.225Z,25.3
2023-02-11T10:35:42.648Z,25.1
2023-02-11T10:36:44.052Z,25
2023-02-11T10:37:45.482Z,25.5
2023-02-11T10:38:46.913Z,25.6
2023-02-11T10:39:48.331Z,24.9
2023-02-11T10:40:50.566Z,25.1
2023-02-11T10:41:52.152Z,25.3
2023-02-11T10:42:55.981Z,25.8
2023-02-11T10:43:57.558Z,25.9
2023-02-11T10:44:58.976Z,26.8
2023-02-11T10:46:00.489Z,26.3
2023-02-11T10:47:01.909Z,26.1
2023-02-11T10:48:03.349Z,26.3
2023-02-11T10:49:04.750Z,26.1
2023-02-11T10:50:06.151Z,26
2023-02-11T10:51:07.610Z,26.5
2023-02-11T10:52:09.035Z,25.8
2023-02-11T10:53:10.464Z,25.3
2023-02-11T10:54:14.997Z,25.7
2023-02-11T10:55:16.401Z,26.1
2023-02-11T10:56:17.796Z,25.6
2023-02-11T10:57:19.213Z,26
2023-02-11T10:58:20.664Z,25.8
2023-02-11T10:59:22.072Z,25.9
2023-02-11T11:00:23.465Z,25.9
2023-02-11T11:01:25.350Z,25.4
2023-02-11T11:02:26.759Z,26.1
2023-02-11T11:03:28.243Z,26.3
2023-02-11T11:04:29.742Z,25.8
2023-02-11T11:05:31.241Z,25.8
2023-02-11T11:06:32.654Z,25.6
2023-02-11T11:07:34.068Z,25.8
2023-02-11T11:08:35.466Z,25.9
2023-02-11T11:09:36.881Z,25.7
2023-02-11T11:10:38.271Z,25.6
2023-02-11T11:11:39.685Z,25.7
2023-02-11T11:12:42.628Z,25.7
2023-02-11T11:13:44.030Z,25.9
2023-02-11T11:14:45.405Z,25.9
2023-02-11T11:15:46.966Z,25.6
2023-02-11T11:16:48.574Z,26
2023-02-11T11:17:49.999Z,25.6
2023-02-11T11:18:51.457Z,25.6
2023-02-11T11:19:52.874Z,25.8
2023-02-11T11:20:54.280Z,25.8
2023-02-11T11:21:55.696Z,25.6
2023-02-11T11:22:57.107Z,25.6
2023-02-11T11:23:58.529Z,25.5
2023-02-11T11:24:59.936Z,25.4
2023-02-11T11:26:01.353Z,25.6
2023-02-11T11:27:02.764Z,25.5
2023-02-11T11:28:04.261Z,25.6
2023-02-11T11:29:05.693Z,25.6
2023-02-11T11:30:07.099Z,25.5
2023-02-11T11:31:08.948Z,25.1
2023-02-11T11:32:10.840Z,25.2
2023-02-11T11:33:12.347Z,25.6
2023-02-11T11:34:13.783Z,25.6
2023-02-11T11:35:15.226Z,25.5
2023-02-11T11:36:16.637Z,25.3
2023-02-11T11:37:18.039Z,25.4
2023-02-11T11:38:19.448Z,25.4
2023-02-11T11:39:20.850Z,25.6
2023-02-11T11:40:22.252Z,25.4
2023-02-11T11:41:23.656Z,25.3
2023-02-11T11:42:25.051Z,25.2
2023-02-11T11:43:26.504Z,25.1
2023-02-11T11:44:27.934Z,25.2
2023-02-11T11:45:29.328Z,25.3
2023-02-11T11:46:30.912Z,25.1
2023-02-11T11:47:32.314Z,25.2
2023-02-11T11:48:33.722Z,25.2
2023-02-11T11:49:35.179Z,25.7
2023-02-11T11:50:36.681Z,25.4
2023-02-11T11:51:38.127Z,25.2
2023-02-11T11:52:39.554Z,25.3
2023-02-11T11:53:41.000Z,25.6
2023-02-11T11:54:42.427Z,25.5
2023-02-11T11:55:43.816Z,25.6
2023-02-11T11:56:45.233Z,25.5
2023-02-11T11:57:46.625Z,25.6
2023-02-11T11:58:48.021Z,25.4
2023-02-11T11:59:49.507Z,25.4
2023-02-11T12:00:51.668Z,25.4
2023-02-11T12:01:53.368Z,25.4
2023-02-11T12:02:54.874Z,25.4
2023-02-11T12:03:56.361Z,25.4
2023-02-11T12:04:57.851Z,25.2
2023-02-11T12:05:59.240Z,25.2
2023-02-11T12:07:00.685Z,25.3
2023-02-11T12:08:02.106Z,25.2
2023-02-11T12:09:03.530Z,25.4
2023-02-11T12:10:04.957Z,25.3
2023-02-11T12:11:06.375Z,25.1
2023-02-11T12:12:07.804Z,25.3
2023-02-11T12:13:09.193Z,25
2023-02-11T12:14:10.587Z,25
2023-02-11T12:15:11.986Z,24.8
2023-02-11T12:16:14.363Z,24.8
2023-02-11T12:17:15.839Z,24.7
2023-02-11T12:18:17.233Z,24.8
2023-02-11T12:19:18.667Z,24.9
2023-02-11T12:20:20.132Z,25.1
2023-02-11T12:21:21.577Z,25.2
2023-02-11T12:22:23.131Z,25.3
2023-02-11T12:23:24.529Z,25.5
2023-02-11T12:24:25.928Z,25.8
2023-02-11T12:25:27.333Z,26.5
2023-02-11T12:26:28.729Z,26.6
2023-02-11T12:27:30.148Z,26.8
2023-02-11T12:28:31.716Z,26.9
2023-02-11T12:29:33.145Z,26.9
2023-02-11T12:30:34.797Z,26.8
2023-02-11T12:31:36.459Z,27
2023-02-11T12:32:37.970Z,27.5
2023-02-11T12:33:39.440Z,26.7
2023-02-11T12:34:40.837Z,26.8
2023-02-11T12:35:42.304Z,26.5
2023-02-11T12:36:43.703Z,26.5
2023-02-11T12:37:45.110Z,26.7
2023-02-11T12:38:46.532Z,27.5
2023-02-11T12:39:47.951Z,27.6
2023-02-11T12:40:50.445Z,27.7
2023-02-11T12:41:52.045Z,28.1
2023-02-11T12:42:53.471Z,29.3
2023-02-11T12:43:54.968Z,29.5
2023-02-11T12:44:56.382Z,29.9
2023-02-11T12:45:58.044Z,31.1
2023-02-11T12:46:59.580Z,30.9
2023-02-11T12:48:01.012Z,30.8
2023-02-11T12:49:02.397Z,30.8
2023-02-11T12:50:03.807Z,31.7
2023-02-11T12:51:05.290Z,31.4
2023-02-11T12:52:06.717Z,31.2
2023-02-11T12:53:08.171Z,31.5
2023-02-11T12:54:09.593Z,31.5
2023-02-11T12:55:11.005Z,31.9
2023-02-11T12:56:12.484Z,33
2023-02-11T12:57:13.917Z,32.5
2023-02-11T12:58:15.339Z,32.5
2023-02-11T12:59:16.833Z,31.6
2023-02-11T13:00:18.246Z,31.7
2023-02-11T13:01:19.917Z,32.4
2023-02-11T13:02:21.621Z,31.5
2023-02-11T13:03:23.140Z,31.6
2023-02-11T13:04:24.562Z,32.1
2023-02-11T13:05:25.985Z,31.8
2023-02-11T13:06:27.428Z,32.1
2023-02-11T13:07:28.826Z,32.1
2023-02-11T13:08:30.246Z,31.4
2023-02-11T13:09:31.667Z,31.3
2023-02-11T13:10:33.071Z,31.1
2023-02-11T13:11:34.493Z,31.1
2023-02-11T13:12:35.926Z,31.3
2023-02-11T13:13:37.322Z,31.7
2023-02-11T13:14:38.718Z,31.9
2023-02-11T13:15:40.121Z,31.5
2023-02-11T13:16:41.687Z,31.6
2023-02-11T13:17:43.108Z,31.4
2023-02-11T13:18:44.492Z,31.3
2023-02-11T13:19:45.879Z,31.2
2023-02-11T13:20:47.290Z,30.8
2023-02-11T13:21:48.701Z,31
2023-02-11T13:22:50.108Z,30.9
2023-02-11T13:23:51.493Z,30.8
2023-02-11T13:24:52.879Z,30.8
2023-02-11T13:25:54.282Z,31
2023-02-11T13:26:55.674Z,31.2
2023-02-11T13:27:57.166Z,29.7
2023-02-11T13:28:58.595Z,29.5
2023-02-11T13:30:04.360Z,29.7
2023-02-11T13:31:06.029Z,30
2023-02-11T13:32:07.748Z,30.3
2023-02-11T13:33:09.199Z,30.2
2023-02-11T13:34:10.613Z,29.9
2023-02-11T13:35:12.025Z,29.8
2023-02-11T13:36:13.430Z,30.2
2023-02-11T13:37:14.919Z,30.2
2023-02-11T13:38:16.326Z,29.9
2023-02-11T13:39:17.729Z,29.6
2023-02-11T13:40:19.139Z,29.6
2023-02-11T13:41:20.541Z,29.8
2023-02-11T13:42:21.920Z,29.7
2023-02-11T13:43:23.328Z,29.6
2023-02-11T13:44:24.739Z,29.8
2023-02-11T13:45:26.141Z,28.5
2023-02-11T13:46:27.746Z,27.1